Marietta, Texas
Current Conditions -  °F | °C
As of 12:35 PM on Sunday 23 Nov 2014 (Local Time) from KOSA Reporting Station
Clear Clear  
Wind Chill: 70°   Ceiling: Unl
Heat Index: 70°   Visibility: 10mi
Dew Point: 57°   Wind: 14mph
Humidity: 65%   Direction: 170°S
Pressure: 29.42"   Gusts: 17mph
Location:  33.17°N, 94.54°W
Report Text: KOSA 231835Z AUTO 17012G15KT 10SM CLR 21/14 A2942 RMK AO1 T02090140
Loading
Personal Weather Stations






























Interactive Weather Map New forecast layout! Learn more

10-Day Weather Forecast

Advertisements
Track Severe Weather on mobile